createdAt,value
2022-08-12T00:02:04.132Z,14.78
2022-08-12T00:07:26.807Z,15.20
2022-08-12T00:12:47.325Z,15.00
2022-08-12T00:18:07.977Z,14.62
2022-08-12T00:23:28.599Z,14.71
2022-08-12T00:28:49.882Z,14.78
2022-08-12T00:34:10.494Z,14.89
2022-08-12T00:39:31.790Z,14.99
2022-08-12T00:44:34.218Z,14.30
2022-08-12T00:49:37.536Z,14.50
2022-08-12T00:54:42.717Z,14.87
2022-08-12T00:59:53.710Z,14.64
2022-08-12T01:05:18.979Z,14.77
2022-08-12T01:10:40.370Z,14.74
2022-08-12T01:15:45.860Z,13.76
2022-08-12T01:21:12.127Z,14.72
2022-08-12T01:26:25.210Z,14.12
2022-08-12T01:31:29.475Z,14.23
2022-08-12T01:36:47.908Z,14.35
2022-08-12T01:41:55.134Z,14.16
2022-08-12T01:47:09.793Z,14.27
2022-08-12T01:52:26.621Z,14.19
2022-08-12T01:57:58.403Z,14.35
2022-08-12T02:03:53.130Z,14.09
2022-08-12T02:09:17.931Z,14.07
2022-08-12T02:14:52.020Z,14.30
2022-08-12T02:20:03.604Z,14.00
2022-08-12T02:25:28.044Z,14.26
2022-08-12T02:30:41.255Z,14.01
2022-08-12T02:35:45.112Z,13.91
2022-08-12T02:40:48.039Z,14.10
2022-08-12T02:46:01.655Z,13.91
2022-08-12T02:51:09.723Z,14.11
2022-08-12T02:56:15.286Z,13.88
2022-08-12T03:01:23.881Z,13.87
2022-08-12T03:06:32.889Z,13.74
2022-08-12T03:11:51.025Z,14.16
2022-08-12T03:17:16.342Z,14.18
2022-08-12T03:22:41.030Z,13.32
2022-08-12T03:27:51.866Z,13.63
2022-08-12T03:32:57.017Z,14.11
2022-08-12T03:38:01.414Z,14.16
2022-08-12T03:43:29.741Z,14.21
2022-08-12T03:48:53.480Z,14.03
2022-08-12T03:54:14.318Z,14.35
2022-08-12T03:59:35.056Z,14.35
2022-08-12T04:04:37.269Z,14.25
2022-08-12T04:09:44.560Z,14.88
2022-08-12T04:14:47.209Z,14.83
2022-08-12T04:19:50.114Z,15.09
2022-08-12T04:24:54.082Z,15.05
2022-08-12T04:30:21.112Z,15.17
2022-08-12T04:35:20.727Z,15.19
2022-08-12T04:40:28.041Z,15.19
2022-08-12T04:45:35.962Z,15.56
2022-08-12T04:50:41.035Z,15.95
2022-08-12T04:55:45.863Z,16.04
2022-08-12T05:00:48.061Z,15.82
2022-08-12T05:05:50.362Z,16.11
2022-08-12T05:10:53.274Z,16.46
2022-08-12T05:16:03.899Z,16.88
2022-08-12T05:21:10.573Z,16.90
2022-08-12T05:26:12.740Z,16.98
2022-08-12T05:31:15.022Z,16.96
2022-08-12T05:36:37.282Z,17.52
2022-08-12T05:41:40.189Z,17.72
2022-08-12T05:46:43.243Z,17.22
2022-08-12T05:51:45.437Z,18.13
2022-08-12T05:56:48.618Z,18.26
2022-08-12T06:02:09.458Z,18.38
2022-08-12T06:07:59.847Z,18.76
2022-08-12T06:12:36.798Z,18.71
2022-08-12T06:17:38.997Z,19.05
2022-08-12T06:22:43.959Z,18.69
2022-08-12T06:28:07.255Z,19.05
2022-08-12T06:33:21.182Z,19.47
2022-08-12T06:38:29.456Z,19.61
2022-08-12T06:44:06.721Z,19.76
2022-08-12T06:48:59.516Z,19.87
2022-08-12T06:54:02.546Z,19.96
2022-08-12T06:59:06.087Z,19.97
2022-08-12T07:04:33.849Z,20.51
2022-08-12T07:10:04.858Z,20.18
2022-08-12T07:14:52.963Z,20.24
2022-08-12T07:19:59.182Z,20.66
2022-08-12T07:25:20.054Z,20.69
2022-08-12T07:30:23.411Z,20.87
2022-08-12T07:35:27.759Z,21.04
2022-08-12T07:40:31.675Z,21.12
2022-08-12T07:45:33.968Z,21.04
2022-08-12T07:50:36.150Z,21.13
2022-08-12T07:55:38.343Z,21.60
2022-08-12T08:00:40.646Z,21.32
2022-08-12T08:05:49.808Z,21.85
2022-08-12T08:11:24.186Z,21.47
2022-08-12T08:21:57.700Z,20.92
2022-08-12T08:27:01.286Z,21.99
2022-08-12T08:32:04.684Z,22.06
2022-08-12T08:37:10.828Z,22.35
2022-08-12T08:42:36.177Z,22.46
2022-08-12T08:47:44.274Z,22.45
2022-08-12T08:52:48.982Z,22.93
2022-08-12T08:57:54.399Z,22.84
2022-08-12T09:02:59.494Z,22.94
2022-08-12T09:08:13.102Z,23.13
2022-08-12T09:14:12.233Z,23.21
2022-08-12T09:24:20.102Z,23.41
2022-08-12T09:30:11.489Z,23.37
2022-08-12T09:34:46.880Z,23.52
2022-08-12T09:40:03.304Z,23.88
2022-08-12T09:46:06.087Z,23.76
2022-08-12T09:50:51.758Z,23.65
2022-08-12T09:56:06.955Z,23.87
2022-08-12T10:01:23.315Z,23.92
2022-08-12T10:06:32.203Z,23.84
2022-08-12T10:12:11.322Z,23.18
2022-08-12T10:17:15.720Z,24.00
2022-08-12T10:22:39.197Z,24.23
2022-08-12T10:28:09.878Z,24.26
2022-08-12T10:33:31.034Z,24.38
2022-08-12T10:38:41.543Z,24.29
2022-08-12T10:43:55.820Z,24.57
2022-08-12T10:49:06.229Z,24.74
2022-08-12T10:54:28.199Z,24.83
2022-08-12T11:00:29.368Z,24.81
2022-08-12T11:07:03.320Z,25.08
2022-08-12T11:10:26.516Z,24.60
2022-08-12T11:16:03.341Z,24.80
2022-08-12T11:20:52.153Z,24.88
2022-08-12T11:25:58.123Z,25.20
2022-08-12T11:31:01.318Z,25.27
2022-08-12T11:36:14.651Z,25.52
2022-08-12T11:41:18.133Z,25.38
2022-08-12T11:46:38.693Z,25.68
2022-08-12T11:51:41.045Z,25.33
2022-08-12T11:56:52.431Z,25.50
2022-08-12T12:02:05.596Z,25.82
2022-08-12T12:07:11.521Z,25.70
2022-08-12T12:12:15.035Z,25.77
2022-08-12T12:17:17.673Z,25.89
2022-08-12T12:22:23.359Z,25.95
2022-08-12T12:28:05.055Z,25.94
2022-08-12T12:33:17.683Z,26.17
2022-08-12T12:38:40.772Z,26.25
2022-08-12T12:43:56.556Z,26.09
2022-08-12T12:49:11.035Z,26.25
2022-08-12T12:54:13.469Z,25.92
2022-08-12T12:59:56.435Z,25.61
2022-08-12T13:04:41.266Z,25.83
2022-08-12T13:09:46.980Z,26.41
2022-08-12T13:14:52.184Z,26.24
2022-08-12T13:19:55.650Z,25.65
2022-08-12T13:25:00.019Z,26.03
2022-08-12T13:30:06.871Z,26.00
2022-08-12T13:35:19.686Z,26.00
2022-08-12T13:40:35.638Z,26.35
2022-08-12T13:45:41.946Z,26.23
2022-08-12T13:50:44.240Z,26.01
2022-08-12T13:56:01.388Z,26.11
2022-08-12T14:01:08.910Z,26.29
2022-08-12T14:06:15.377Z,26.34
2022-08-12T14:11:32.364Z,26.19
2022-08-12T14:16:49.370Z,25.48
2022-08-12T14:21:59.174Z,26.20
2022-08-12T14:27:02.862Z,25.47
2022-08-12T14:32:07.918Z,26.00
2022-08-12T14:37:58.197Z,25.84
2022-08-12T14:42:42.137Z,25.40
2022-08-12T14:47:58.620Z,25.70
2022-08-12T14:58:24.888Z,25.42
2022-08-12T15:03:46.634Z,25.26
2022-08-12T15:08:50.563Z,25.25
2022-08-12T15:13:56.163Z,25.14
2022-08-12T15:18:59.262Z,25.10
2022-08-12T15:24:08.889Z,25.17
2022-08-12T15:29:16.946Z,24.28
2022-08-12T15:34:19.249Z,24.75
2022-08-12T15:39:21.785Z,24.50
2022-08-12T15:44:42.147Z,23.88
2022-08-12T15:50:00.090Z,24.40
2022-08-12T15:55:05.982Z,24.38
2022-08-12T16:00:31.682Z,23.78
2022-08-12T16:06:11.777Z,24.24
2022-08-12T16:11:14.908Z,23.31
2022-08-12T16:16:24.180Z,24.17
2022-08-12T16:21:50.468Z,23.90
2022-08-12T16:26:51.252Z,23.87
2022-08-12T16:31:56.413Z,23.77
2022-08-12T16:37:02.325Z,23.58
2022-08-12T16:42:05.784Z,23.41
2022-08-12T16:47:08.110Z,23.13
2022-08-12T16:52:12.703Z,23.37
2022-08-12T16:57:15.289Z,23.04
2022-08-12T17:02:31.635Z,22.09
2022-08-12T17:07:43.088Z,22.01
2022-08-12T17:12:45.823Z,21.94
2022-08-12T17:18:39.073Z,21.56
2022-08-12T17:23:20.574Z,22.48
2022-08-12T17:28:25.536Z,22.01
2022-08-12T17:33:33.515Z,22.19
2022-08-12T17:38:38.270Z,21.83
2022-08-12T17:43:54.797Z,21.74
2022-08-12T17:49:06.918Z,21.71
2022-08-12T17:54:24.903Z,21.34
2022-08-12T17:59:48.466Z,21.38
2022-08-12T18:05:04.899Z,21.11
2022-08-12T18:10:08.647Z,20.93
2022-08-12T18:15:47.742Z,20.90
2022-08-12T18:20:44.654Z,21.01
2022-08-12T18:26:12.472Z,20.72
2022-08-12T18:31:24.184Z,20.70
2022-08-12T18:36:51.632Z,20.38
2022-08-12T18:41:54.494Z,20.03
2022-08-12T18:47:01.690Z,19.97
2022-08-12T18:52:11.848Z,19.88
2022-08-12T18:57:20.008Z,19.78
2022-08-12T19:02:40.363Z,19.98
2022-08-12T19:08:00.532Z,19.96
2022-08-12T19:13:25.121Z,19.42
2022-08-12T19:18:35.652Z,19.46
2022-08-12T19:23:42.283Z,19.10
2022-08-12T19:28:48.147Z,19.19
2022-08-12T19:34:14.601Z,19.30
2022-08-12T19:39:15.290Z,18.58
2022-08-12T19:44:27.259Z,18.80
2022-08-12T19:49:29.916Z,19.03
2022-08-12T19:54:56.249Z,18.78
2022-08-12T20:00:03.644Z,19.11
2022-08-12T20:06:08.022Z,18.53
2022-08-12T20:10:37.160Z,18.42
2022-08-12T20:15:44.558Z,18.55
2022-08-12T20:20:47.818Z,18.67
2022-08-12T20:25:58.620Z,18.51
2022-08-12T20:31:08.686Z,18.44
2022-08-12T20:36:41.053Z,17.68
2022-08-12T20:41:36.244Z,18.06
2022-08-12T20:46:38.826Z,18.15
2022-08-12T20:51:54.876Z,18.13
2022-08-12T20:56:58.243Z,17.97
2022-08-12T21:02:04.948Z,17.73
2022-08-12T21:07:10.343Z,17.91
2022-08-12T21:12:28.650Z,17.93
2022-08-12T21:18:08.269Z,18.14
2022-08-12T21:22:57.741Z,17.62
2022-08-12T21:28:01.271Z,17.90
2022-08-12T21:33:10.701Z,17.57
2022-08-12T21:38:16.949Z,17.09
2022-08-12T21:43:21.191Z,17.22
2022-08-12T21:48:25.571Z,17.20
2022-08-12T21:54:06.133Z,17.52
2022-08-12T21:58:50.135Z,17.43
2022-08-12T22:04:12.568Z,17.50
2022-08-12T22:09:15.756Z,17.25
2022-08-12T22:14:23.522Z,17.06
2022-08-12T22:19:26.675Z,16.23
2022-08-12T22:24:30.363Z,17.32
2022-08-12T22:29:52.614Z,17.20
2022-08-12T22:35:22.408Z,16.45
2022-08-12T22:40:26.582Z,16.79
2022-08-12T22:45:48.479Z,16.88
2022-08-12T22:50:59.770Z,16.71
2022-08-12T22:56:06.482Z,16.75
2022-08-12T23:01:13.771Z,16.40
2022-08-12T23:06:25.292Z,16.81
2022-08-12T23:11:33.635Z,16.44
2022-08-12T23:16:41.013Z,16.62
2022-08-12T23:22:05.065Z,16.62
2022-08-12T23:27:51.045Z,16.29
2022-08-12T23:32:59.853Z,15.85
2022-08-12T23:38:03.339Z,16.01
2022-08-12T23:43:05.953Z,16.16
2022-08-12T23:48:08.450Z,15.98
2022-08-12T23:53:32.370Z,16.12
2022-08-12T23:58:35.774Z,16.15
